sensor_id;sensor_type;location;lat;lon;timestamp;temperature;humidity
7512;DHT22;9999;48.780;9.146;2023-01-06T00:00:43;9.80;99.90
7512;DHT22;9999;48.780;9.146;2023-01-06T00:03:10;9.90;99.90
7512;DHT22;9999;48.780;9.146;2023-01-06T00:05:37;9.90;99.90
7512;DHT22;9999;48.780;9.146;2023-01-06T00:08:05;9.90;99.90
7512;DHT22;9999;48.780;9.146;2023-01-06T00:10:32;9.90;99.90
7512;DHT22;9999;48.780;9.146;2023-01-06T00:12:58;9.80;99.90
7512;DHT22;9999;48.780;9.146;2023-01-06T00:15:25;9.80;99.90
7512;DHT22;9999;48.780;9.146;2023-01-06T00:17:52;9.90;99.90
7512;DHT22;9999;48.780;9.146;2023-01-06T00:20:19;9.80;99.90
7512;DHT22;9999;48.780;9.146;2023-01-06T00:22:46;9.80;99.90
7512;DHT22;9999;48.780;9.146;2023-01-06T00:25:14;9.80;99.90
7512;DHT22;9999;48.780;9.146;2023-01-06T00:27:40;9.80;99.90
7512;DHT22;9999;48.780;9.146;2023-01-06T00:30:08;9.80;99.90
7512;DHT22;9999;48.780;9.146;2023-01-06T00:32:35;9.80;99.90
7512;DHT22;9999;48.780;9.146;2023-01-06T00:35:02;9.80;99.90
7512;DHT22;9999;48.780;9.146;2023-01-06T00:37:29;9.80;99.90
7512;DHT22;9999;48.780;9.146;2023-01-06T00:39:56;9.80;99.90
7512;DHT22;9999;48.780;9.146;2023-01-06T00:42:24;9.80;99.90
7512;DHT22;9999;48.780;9.146;2023-01-06T00:44:51;9.80;99.90
7512;DHT22;9999;48.780;9.146;2023-01-06T00:47:19;9.90;99.90
7512;DHT22;9999;48.780;9.146;2023-01-06T00:49:47;9.80;99.90
7512;DHT22;9999;48.780;9.146;2023-01-06T00:52:14;9.80;99.90
7512;DHT22;9999;48.780;9.146;2023-01-06T00:54:41;9.70;99.90
7512;DHT22;9999;48.780;9.146;2023-01-06T00:57:08;9.70;99.90
7512;DHT22;9999;48.780;9.146;2023-01-06T00:59:36;9.70;99.90
7512;DHT22;9999;48.780;9.146;2023-01-06T01:02:04;9.70;99.90
7512;DHT22;9999;48.780;9.146;2023-01-06T01:04:30;9.60;99.90
7512;DHT22;9999;48.780;9.146;2023-01-06T01:06:57;9.70;99.90
7512;DHT22;9999;48.780;9.146;2023-01-06T01:09:26;9.70;99.90
7512;DHT22;9999;48.780;9.146;2023-01-06T01:11:54;9.70;99.90
7512;DHT22;9999;48.780;9.146;2023-01-06T01:14:39;9.60;99.90
7512;DHT22;9999;48.780;9.146;2023-01-06T01:17:07;9.60;99.90
7512;DHT22;9999;48.780;9.146;2023-01-06T01:19:34;9.60;99.90
7512;DHT22;9999;48.780;9.146;2023-01-06T01:22:00;9.60;99.90
7512;DHT22;9999;48.780;9.146;2023-01-06T01:24:27;9.60;99.90
7512;DHT22;9999;48.780;9.146;2023-01-06T01:26:54;9.50;99.90
7512;DHT22;9999;48.780;9.146;2023-01-06T01:29:23;9.50;99.90
7512;DHT22;9999;48.780;9.146;2023-01-06T01:31:52;9.50;99.90
7512;DHT22;9999;48.780;9.146;2023-01-06T01:34:20;9.60;99.90
7512;DHT22;9999;48.780;9.146;2023-01-06T01:36:49;9.50;99.90
7512;DHT22;9999;48.780;9.146;2023-01-06T01:39:18;9.50;99.90
7512;DHT22;9999;48.780;9.146;2023-01-06T01:41:46;9.50;99.90
7512;DHT22;9999;48.780;9.146;2023-01-06T01:47:41;9.40;99.90
7512;DHT22;9999;48.780;9.146;2023-01-06T01:50:18;9.40;99.90
7512;DHT22;9999;48.780;9.146;2023-01-06T01:52:48;9.50;99.90
7512;DHT22;9999;48.780;9.146;2023-01-06T01:55:16;9.50;99.90
7512;DHT22;9999;48.780;9.146;2023-01-06T01:57:47;9.50;99.90
7512;DHT22;9999;48.780;9.146;2023-01-06T02:00:16;9.40;99.90
7512;DHT22;9999;48.780;9.146;2023-01-06T02:02:45;9.50;99.90
7512;DHT22;9999;48.780;9.146;2023-01-06T02:05:15;9.50;99.90
7512;DHT22;9999;48.780;9.146;2023-01-06T02:07:44;9.60;99.90
7512;DHT22;9999;48.780;9.146;2023-01-06T02:10:14;9.60;99.90
7512;DHT22;9999;48.780;9.146;2023-01-06T02:12:42;9.60;99.90
7512;DHT22;9999;48.780;9.146;2023-01-06T02:15:15;9.60;99.90
7512;DHT22;9999;48.780;9.146;2023-01-06T02:17:57;9.60;99.90
7512;DHT22;9999;48.780;9.146;2023-01-06T02:20:38;9.60;99.90
7512;DHT22;9999;48.780;9.146;2023-01-06T02:23:43;9.60;99.90
7512;DHT22;9999;48.780;9.146;2023-01-06T02:32:52;9.60;99.90
7512;DHT22;9999;48.780;9.146;2023-01-06T02:35:46;9.60;99.90
7512;DHT22;9999;48.780;9.146;2023-01-06T02:38:25;9.70;99.90
7512;DHT22;9999;48.780;9.146;2023-01-06T02:41:07;9.70;99.90
7512;DHT22;9999;48.780;9.146;2023-01-06T02:43:44;9.60;99.90
7512;DHT22;9999;48.780;9.146;2023-01-06T02:46:25;9.70;99.90
7512;DHT22;9999;48.780;9.146;2023-01-06T02:49:03;9.80;99.90
7512;DHT22;9999;48.780;9.146;2023-01-06T02:51:42;9.70;99.90
7512;DHT22;9999;48.780;9.146;2023-01-06T02:54:16;9.70;99.90
7512;DHT22;9999;48.780;9.146;2023-01-06T02:56:48;9.70;99.90
7512;DHT22;9999;48.780;9.146;2023-01-06T02:59:21;9.70;99.90
7512;DHT22;9999;48.780;9.146;2023-01-06T03:01:50;9.70;99.90
7512;DHT22;9999;48.780;9.146;2023-01-06T03:04:23;9.70;99.90
7512;DHT22;9999;48.780;9.146;2023-01-06T03:06:54;9.80;99.90
7512;DHT22;9999;48.780;9.146;2023-01-06T03:09:26;9.70;99.90
7512;DHT22;9999;48.780;9.146;2023-01-06T03:11:53;9.70;99.90
7512;DHT22;9999;48.780;9.146;2023-01-06T03:14:22;9.70;99.90
7512;DHT22;9999;48.780;9.146;2023-01-06T03:16:50;9.70;99.90
7512;DHT22;9999;48.780;9.146;2023-01-06T03:19:17;9.80;99.90
7512;DHT22;9999;48.780;9.146;2023-01-06T03:21:47;9.80;99.90
7512;DHT22;9999;48.780;9.146;2023-01-06T03:24:18;9.70;99.90
7512;DHT22;9999;48.780;9.146;2023-01-06T03:26:47;9.70;99.90
7512;DHT22;9999;48.780;9.146;2023-01-06T03:29:17;9.80;99.90
7512;DHT22;9999;48.780;9.146;2023-01-06T03:31:53;9.80;99.90
7512;DHT22;9999;48.780;9.146;2023-01-06T03:34:33;9.80;99.90
7512;DHT22;9999;48.780;9.146;2023-01-06T03:37:08;9.60;99.90
7512;DHT22;9999;48.780;9.146;2023-01-06T03:39:43;9.50;99.90
7512;DHT22;9999;48.780;9.146;2023-01-06T03:42:21;9.50;99.90
7512;DHT22;9999;48.780;9.146;2023-01-06T03:45:16;9.50;99.90
7512;DHT22;9999;48.780;9.146;2023-01-06T03:47:51;9.40;99.90
7512;DHT22;9999;48.780;9.146;2023-01-06T03:50:22;9.40;99.90
7512;DHT22;9999;48.780;9.146;2023-01-06T03:52:57;9.50;99.90
7512;DHT22;9999;48.780;9.146;2023-01-06T03:55:30;9.40;99.90
7512;DHT22;9999;48.780;9.146;2023-01-06T03:58:01;9.40;99.90
7512;DHT22;9999;48.780;9.146;2023-01-06T04:00:32;9.40;99.90
7512;DHT22;9999;48.780;9.146;2023-01-06T04:03:07;9.30;99.90
7512;DHT22;9999;48.780;9.146;2023-01-06T04:05:35;9.30;99.90
7512;DHT22;9999;48.780;9.146;2023-01-06T04:08:04;9.30;99.90
7512;DHT22;9999;48.780;9.146;2023-01-06T04:10:31;9.30;99.90
7512;DHT22;9999;48.780;9.146;2023-01-06T04:12:58;9.30;99.90
7512;DHT22;9999;48.780;9.146;2023-01-06T04:15:30;9.20;99.90
7512;DHT22;9999;48.780;9.146;2023-01-06T04:17:58;9.20;99.90
7512;DHT22;9999;48.780;9.146;2023-01-06T04:20:29;9.20;99.90
7512;DHT22;9999;48.780;9.146;2023-01-06T04:23:09;9.20;99.90
7512;DHT22;9999;48.780;9.146;2023-01-06T04:25:38;9.20;99.90
7512;DHT22;9999;48.780;9.146;2023-01-06T04:28:12;9.20;99.90
7512;DHT22;9999;48.780;9.146;2023-01-06T04:30:39;9.20;99.90
7512;DHT22;9999;48.780;9.146;2023-01-06T04:33:06;9.20;99.90
7512;DHT22;9999;48.780;9.146;2023-01-06T04:35:33;9.20;99.90
7512;DHT22;9999;48.780;9.146;2023-01-06T04:38:00;9.20;99.90
7512;DHT22;9999;48.780;9.146;2023-01-06T04:40:29;9.00;99.90
7512;DHT22;9999;48.780;9.146;2023-01-06T04:42:56;9.00;99.90
7512;DHT22;9999;48.780;9.146;2023-01-06T04:45:32;9.00;99.90
7512;DHT22;9999;48.780;9.146;2023-01-06T04:47:59;9.00;99.90
7512;DHT22;9999;48.780;9.146;2023-01-06T04:50:26;9.10;99.90
7512;DHT22;9999;48.780;9.146;2023-01-06T04:52:52;9.00;99.90
7512;DHT22;9999;48.780;9.146;2023-01-06T04:55:19;9.10;99.90
7512;DHT22;9999;48.780;9.146;2023-01-06T04:57:47;9.00;99.90
7512;DHT22;9999;48.780;9.146;2023-01-06T05:00:15;9.10;99.90
7512;DHT22;9999;48.780;9.146;2023-01-06T05:02:42;9.10;99.90
7512;DHT22;9999;48.780;9.146;2023-01-06T05:05:09;9.20;99.90
7512;DHT22;9999;48.780;9.146;2023-01-06T05:07:36;9.10;99.90
7512;DHT22;9999;48.780;9.146;2023-01-06T05:10:04;9.10;99.90
7512;DHT22;9999;48.780;9.146;2023-01-06T05:12:32;9.10;99.90
7512;DHT22;9999;48.780;9.146;2023-01-06T05:15:01;9.20;99.90
7512;DHT22;9999;48.780;9.146;2023-01-06T05:17:28;9.20;99.90
7512;DHT22;9999;48.780;9.146;2023-01-06T05:19:54;9.20;99.90
7512;DHT22;9999;48.780;9.146;2023-01-06T05:22:21;9.20;99.90
7512;DHT22;9999;48.780;9.146;2023-01-06T05:24:48;9.20;99.90
7512;DHT22;9999;48.780;9.146;2023-01-06T05:27:15;9.30;99.90
7512;DHT22;9999;48.780;9.146;2023-01-06T05:29:42;9.20;99.90
7512;DHT22;9999;48.780;9.146;2023-01-06T05:32:10;9.30;99.90
7512;DHT22;9999;48.780;9.146;2023-01-06T05:34:37;9.20;99.90
7512;DHT22;9999;48.780;9.146;2023-01-06T05:37:03;9.30;99.90
7512;DHT22;9999;48.780;9.146;2023-01-06T05:39:30;9.30;99.90
7512;DHT22;9999;48.780;9.146;2023-01-06T05:41:57;9.30;99.90
7512;DHT22;9999;48.780;9.146;2023-01-06T05:44:24;9.20;99.90
7512;DHT22;9999;48.780;9.146;2023-01-06T05:46:51;9.20;99.90
7512;DHT22;9999;48.780;9.146;2023-01-06T05:49:19;9.20;99.90
7512;DHT22;9999;48.780;9.146;2023-01-06T05:51:47;9.20;99.90
7512;DHT22;9999;48.780;9.146;2023-01-06T05:54:13;9.20;99.90
7512;DHT22;9999;48.780;9.146;2023-01-06T05:56:40;9.20;99.90
7512;DHT22;9999;48.780;9.146;2023-01-06T05:59:07;9.20;99.90
7512;DHT22;9999;48.780;9.146;2023-01-06T06:01:34;9.20;99.90
7512;DHT22;9999;48.780;9.146;2023-01-06T06:04:01;9.20;99.90
7512;DHT22;9999;48.780;9.146;2023-01-06T06:06:29;9.10;99.90
7512;DHT22;9999;48.780;9.146;2023-01-06T06:08:56;9.20;99.90
7512;DHT22;9999;48.780;9.146;2023-01-06T06:11:23;9.00;99.90
7512;DHT22;9999;48.780;9.146;2023-01-06T06:13:51;9.00;99.90
7512;DHT22;9999;48.780;9.146;2023-01-06T06:16:19;9.10;99.90
7512;DHT22;9999;48.780;9.146;2023-01-06T06:18:48;9.10;99.90
7512;DHT22;9999;48.780;9.146;2023-01-06T06:21:17;9.10;99.90
7512;DHT22;9999;48.780;9.146;2023-01-06T06:23:46;9.00;99.90
7512;DHT22;9999;48.780;9.146;2023-01-06T06:26:13;9.00;99.90
7512;DHT22;9999;48.780;9.146;2023-01-06T06:28:40;9.10;99.90
7512;DHT22;9999;48.780;9.146;2023-01-06T06:31:09;9.00;99.90
7512;DHT22;9999;48.780;9.146;2023-01-06T06:33:36;9.10;99.90
7512;DHT22;9999;48.780;9.146;2023-01-06T06:36:04;9.10;99.90
7512;DHT22;9999;48.780;9.146;2023-01-06T06:38:31;9.10;99.90
7512;DHT22;9999;48.780;9.146;2023-01-06T06:40:59;9.20;99.90
7512;DHT22;9999;48.780;9.146;2023-01-06T06:43:26;9.10;99.90
7512;DHT22;9999;48.780;9.146;2023-01-06T06:45:53;9.20;99.90
7512;DHT22;9999;48.780;9.146;2023-01-06T06:48:20;9.20;99.90
7512;DHT22;9999;48.780;9.146;2023-01-06T06:50:55;9.20;99.90
7512;DHT22;9999;48.780;9.146;2023-01-06T06:53:22;9.20;99.90
7512;DHT22;9999;48.780;9.146;2023-01-06T06:55:49;9.20;99.90
7512;DHT22;9999;48.780;9.146;2023-01-06T06:58:17;9.20;99.90
7512;DHT22;9999;48.780;9.146;2023-01-06T07:00:44;9.20;99.90
7512;DHT22;9999;48.780;9.146;2023-01-06T07:03:10;9.30;99.90
7512;DHT22;9999;48.780;9.146;2023-01-06T07:05:37;9.30;99.90
7512;DHT22;9999;48.780;9.146;2023-01-06T07:08:04;9.30;99.90
7512;DHT22;9999;48.780;9.146;2023-01-06T07:10:31;9.30;99.90
7512;DHT22;9999;48.780;9.146;2023-01-06T07:12:58;9.30;99.90
7512;DHT22;9999;48.780;9.146;2023-01-06T07:15:26;9.30;99.90
7512;DHT22;9999;48.780;9.146;2023-01-06T07:17:53;9.30;99.90
7512;DHT22;9999;48.780;9.146;2023-01-06T07:20:19;9.30;99.90
7512;DHT22;9999;48.780;9.146;2023-01-06T07:22:46;9.30;99.90
7512;DHT22;9999;48.780;9.146;2023-01-06T07:25:13;9.30;99.90
7512;DHT22;9999;48.780;9.146;2023-01-06T07:27:40;9.30;99.90
7512;DHT22;9999;48.780;9.146;2023-01-06T07:30:07;9.30;99.90
7512;DHT22;9999;48.780;9.146;2023-01-06T07:32:36;9.30;99.90
7512;DHT22;9999;48.780;9.146;2023-01-06T07:35:03;9.30;99.90
7512;DHT22;9999;48.780;9.146;2023-01-06T07:37:30;9.30;99.90
7512;DHT22;9999;48.780;9.146;2023-01-06T07:39:57;9.30;99.90
7512;DHT22;9999;48.780;9.146;2023-01-06T07:42:24;9.30;99.90
7512;DHT22;9999;48.780;9.146;2023-01-06T07:44:50;9.50;99.90
7512;DHT22;9999;48.780;9.146;2023-01-06T07:47:17;9.50;99.90
7512;DHT22;9999;48.780;9.146;2023-01-06T07:49:45;9.50;99.90
7512;DHT22;9999;48.780;9.146;2023-01-06T07:52:12;9.40;99.90
7512;DHT22;9999;48.780;9.146;2023-01-06T07:54:39;9.40;99.90
7512;DHT22;9999;48.780;9.146;2023-01-06T07:57:05;9.40;99.90
7512;DHT22;9999;48.780;9.146;2023-01-06T07:59:32;9.30;99.90
7512;DHT22;9999;48.780;9.146;2023-01-06T08:01:59;9.40;99.90
7512;DHT22;9999;48.780;9.146;2023-01-06T08:04:26;9.40;99.90
7512;DHT22;9999;48.780;9.146;2023-01-06T08:06:54;9.40;99.90
7512;DHT22;9999;48.780;9.146;2023-01-06T08:09:21;9.40;99.90
7512;DHT22;9999;48.780;9.146;2023-01-06T08:11:47;9.50;99.90
7512;DHT22;9999;48.780;9.146;2023-01-06T08:14:14;9.50;99.90
7512;DHT22;9999;48.780;9.146;2023-01-06T08:16:41;9.50;99.90
7512;DHT22;9999;48.780;9.146;2023-01-06T08:19:09;9.40;99.90
7512;DHT22;9999;48.780;9.146;2023-01-06T08:21:35;9.40;99.90
7512;DHT22;9999;48.780;9.146;2023-01-06T08:24:04;9.40;99.90
7512;DHT22;9999;48.780;9.146;2023-01-06T08:26:31;9.30;99.90
7512;DHT22;9999;48.780;9.146;2023-01-06T08:28:58;9.30;99.90
7512;DHT22;9999;48.780;9.146;2023-01-06T08:31:24;9.30;99.90
7512;DHT22;9999;48.780;9.146;2023-01-06T08:33:51;9.40;99.90
7512;DHT22;9999;48.780;9.146;2023-01-06T08:36:20;9.50;99.90
7512;DHT22;9999;48.780;9.146;2023-01-06T08:38:48;9.50;99.90
7512;DHT22;9999;48.780;9.146;2023-01-06T08:41:16;9.50;99.90
7512;DHT22;9999;48.780;9.146;2023-01-06T08:43:44;9.40;99.90
7512;DHT22;9999;48.780;9.146;2023-01-06T08:46:13;9.40;99.90
7512;DHT22;9999;48.780;9.146;2023-01-06T08:48:40;9.40;99.90
7512;DHT22;9999;48.780;9.146;2023-01-06T08:51:10;9.40;99.90
7512;DHT22;9999;48.780;9.146;2023-01-06T08:53:37;9.40;99.90
7512;DHT22;9999;48.780;9.146;2023-01-06T08:56:09;9.40;99.90
7512;DHT22;9999;48.780;9.146;2023-01-06T08:58:38;9.40;99.90
7512;DHT22;9999;48.780;9.146;2023-01-06T09:01:04;9.30;99.90
7512;DHT22;9999;48.780;9.146;2023-01-06T09:03:31;9.30;99.90
7512;DHT22;9999;48.780;9.146;2023-01-06T09:05:58;9.30;99.90
7512;DHT22;9999;48.780;9.146;2023-01-06T09:08:25;9.30;99.90
7512;DHT22;9999;48.780;9.146;2023-01-06T09:10:51;9.30;99.90
7512;DHT22;9999;48.780;9.146;2023-01-06T09:13:18;9.30;99.90
7512;DHT22;9999;48.780;9.146;2023-01-06T09:15:46;9.40;99.90
7512;DHT22;9999;48.780;9.146;2023-01-06T09:18:13;9.30;99.90
7512;DHT22;9999;48.780;9.146;2023-01-06T09:20:40;9.40;99.90
7512;DHT22;9999;48.780;9.146;2023-01-06T09:23:07;9.50;99.90
7512;DHT22;9999;48.780;9.146;2023-01-06T09:25:34;9.50;99.90
7512;DHT22;9999;48.780;9.146;2023-01-06T09:28:00;9.40;99.90
7512;DHT22;9999;48.780;9.146;2023-01-06T09:30:27;9.40;99.90
7512;DHT22;9999;48.780;9.146;2023-01-06T09:32:55;9.50;99.90
7512;DHT22;9999;48.780;9.146;2023-01-06T09:35:22;9.50;99.90
7512;DHT22;9999;48.780;9.146;2023-01-06T09:37:49;9.50;99.90
7512;DHT22;9999;48.780;9.146;2023-01-06T09:40:17;9.60;99.90
7512;DHT22;9999;48.780;9.146;2023-01-06T09:42:58;9.60;99.90
7512;DHT22;9999;48.780;9.146;2023-01-06T09:45:33;9.70;99.90
7512;DHT22;9999;48.780;9.146;2023-01-06T09:48:05;9.90;99.90
7512;DHT22;9999;48.780;9.146;2023-01-06T09:50:36;9.90;99.90
7512;DHT22;9999;48.780;9.146;2023-01-06T09:53:07;10.00;99.90
7512;DHT22;9999;48.780;9.146;2023-01-06T09:55:38;9.90;99.90
7512;DHT22;9999;48.780;9.146;2023-01-06T09:58:11;10.00;99.90
7512;DHT22;9999;48.780;9.146;2023-01-06T10:00:41;10.10;99.90
7512;DHT22;9999;48.780;9.146;2023-01-06T10:03:12;10.20;99.90
7512;DHT22;9999;48.780;9.146;2023-01-06T10:05:47;10.40;99.90
7512;DHT22;9999;48.780;9.146;2023-01-06T10:08:23;10.50;99.90
7512;DHT22;9999;48.780;9.146;2023-01-06T10:11:03;10.50;99.90
7512;DHT22;9999;48.780;9.146;2023-01-06T10:13:51;10.40;99.90
7512;DHT22;9999;48.780;9.146;2023-01-06T10:16:28;10.40;99.90
7512;DHT22;9999;48.780;9.146;2023-01-06T10:19:06;10.30;99.90
7512;DHT22;9999;48.780;9.146;2023-01-06T10:21:41;10.40;99.90
7512;DHT22;9999;48.780;9.146;2023-01-06T10:24:30;10.50;99.90
7512;DHT22;9999;48.780;9.146;2023-01-06T10:27:09;10.50;99.90
7512;DHT22;9999;48.780;9.146;2023-01-06T10:29:40;10.60;99.90
7512;DHT22;9999;48.780;9.146;2023-01-06T10:32:14;10.60;99.90
7512;DHT22;9999;48.780;9.146;2023-01-06T10:34:43;10.60;99.90
7512;DHT22;9999;48.780;9.146;2023-01-06T10:37:22;10.50;99.90
7512;DHT22;9999;48.780;9.146;2023-01-06T10:39:54;10.60;99.90
7512;DHT22;9999;48.780;9.146;2023-01-06T10:42:30;10.50;99.90
7512;DHT22;9999;48.780;9.146;2023-01-06T10:45:17;10.60;99.90
7512;DHT22;9999;48.780;9.146;2023-01-06T10:47:44;10.70;99.90
7512;DHT22;9999;48.780;9.146;2023-01-06T10:50:14;10.70;99.90
7512;DHT22;9999;48.780;9.146;2023-01-06T10:52:42;10.70;99.90
7512;DHT22;9999;48.780;9.146;2023-01-06T10:55:22;10.60;99.90
7512;DHT22;9999;48.780;9.146;2023-01-06T10:57:53;10.50;99.90
7512;DHT22;9999;48.780;9.146;2023-01-06T11:00:23;10.40;99.90
7512;DHT22;9999;48.780;9.146;2023-01-06T11:02:52;10.40;99.90
7512;DHT22;9999;48.780;9.146;2023-01-06T11:05:22;10.30;99.90
7512;DHT22;9999;48.780;9.146;2023-01-06T11:07:56;10.30;99.90
7512;DHT22;9999;48.780;9.146;2023-01-06T11:10:36;10.30;99.90
7512;DHT22;9999;48.780;9.146;2023-01-06T11:13:05;10.30;99.90
7512;DHT22;9999;48.780;9.146;2023-01-06T11:15:38;10.30;99.90
7512;DHT22;9999;48.780;9.146;2023-01-06T11:18:18;10.40;99.90
7512;DHT22;9999;48.780;9.146;2023-01-06T11:21:00;10.40;99.90
7512;DHT22;9999;48.780;9.146;2023-01-06T11:23:27;10.40;99.90
7512;DHT22;9999;48.780;9.146;2023-01-06T11:26:05;10.50;99.90
7512;DHT22;9999;48.780;9.146;2023-01-06T11:28:33;10.40;99.90
7512;DHT22;9999;48.780;9.146;2023-01-06T11:31:02;10.40;99.90
7512;DHT22;9999;48.780;9.146;2023-01-06T11:33:31;10.50;99.90
7512;DHT22;9999;48.780;9.146;2023-01-06T11:36:07;10.50;99.90
7512;DHT22;9999;48.780;9.146;2023-01-06T11:38:41;10.50;99.90
7512;DHT22;9999;48.780;9.146;2023-01-06T11:41:10;10.60;99.90
7512;DHT22;9999;48.780;9.146;2023-01-06T11:43:42;10.60;99.90
7512;DHT22;9999;48.780;9.146;2023-01-06T11:46:12;10.60;99.90
7512;DHT22;9999;48.780;9.146;2023-01-06T11:48:42;10.60;99.90
7512;DHT22;9999;48.780;9.146;2023-01-06T11:51:11;10.60;99.90
7512;DHT22;9999;48.780;9.146;2023-01-06T11:53:38;10.60;99.90
7512;DHT22;9999;48.780;9.146;2023-01-06T11:56:16;10.70;99.90
7512;DHT22;9999;48.780;9.146;2023-01-06T11:58:50;10.80;99.90
7512;DHT22;9999;48.780;9.146;2023-01-06T12:01:26;10.80;99.90
7512;DHT22;9999;48.780;9.146;2023-01-06T12:04:01;11.00;99.90
7512;DHT22;9999;48.780;9.146;2023-01-06T12:06:35;11.00;99.90
7512;DHT22;9999;48.780;9.146;2023-01-06T12:09:07;11.00;99.90
7512;DHT22;9999;48.780;9.146;2023-01-06T12:11:42;11.10;99.90
7512;DHT22;9999;48.780;9.146;2023-01-06T12:14:13;11.00;99.90
7512;DHT22;9999;48.780;9.146;2023-01-06T12:16:48;11.10;99.90
7512;DHT22;9999;48.780;9.146;2023-01-06T12:19:22;11.10;99.90
7512;DHT22;9999;48.780;9.146;2023-01-06T12:21:52;11.10;99.90
7512;DHT22;9999;48.780;9.146;2023-01-06T12:24:21;11.00;99.90
7512;DHT22;9999;48.780;9.146;2023-01-06T12:26:49;11.00;99.90
7512;DHT22;9999;48.780;9.146;2023-01-06T12:29:19;10.90;99.90
7512;DHT22;9999;48.780;9.146;2023-01-06T12:31:55;10.90;99.90
7512;DHT22;9999;48.780;9.146;2023-01-06T12:34:28;11.00;99.90
7512;DHT22;9999;48.780;9.146;2023-01-06T12:37:05;11.00;99.90
7512;DHT22;9999;48.780;9.146;2023-01-06T12:39:39;11.00;99.90
7512;DHT22;9999;48.780;9.146;2023-01-06T12:42:17;11.00;99.90
7512;DHT22;9999;48.780;9.146;2023-01-06T12:44:51;10.90;99.90
7512;DHT22;9999;48.780;9.146;2023-01-06T12:47:24;10.90;99.90
7512;DHT22;9999;48.780;9.146;2023-01-06T12:49:55;11.00;99.90
7512;DHT22;9999;48.780;9.146;2023-01-06T12:52:29;11.00;99.90
7512;DHT22;9999;48.780;9.146;2023-01-06T12:54:58;11.00;99.90
7512;DHT22;9999;48.780;9.146;2023-01-06T12:57:45;11.00;99.90
7512;DHT22;9999;48.780;9.146;2023-01-06T13:00:31;11.00;99.90
7512;DHT22;9999;48.780;9.146;2023-01-06T13:03:16;10.90;99.90
7512;DHT22;9999;48.780;9.146;2023-01-06T13:06:12;10.90;99.90
7512;DHT22;9999;48.780;9.146;2023-01-06T13:09:03;11.00;99.90
7512;DHT22;9999;48.780;9.146;2023-01-06T13:11:44;11.10;99.90
7512;DHT22;9999;48.780;9.146;2023-01-06T13:14:20;11.00;99.90
7512;DHT22;9999;48.780;9.146;2023-01-06T13:16:55;11.00;99.90
7512;DHT22;9999;48.780;9.146;2023-01-06T13:19:36;11.00;99.90
7512;DHT22;9999;48.780;9.146;2023-01-06T13:22:07;11.10;99.90
7512;DHT22;9999;48.780;9.146;2023-01-06T13:24:52;11.20;99.90
7512;DHT22;9999;48.780;9.146;2023-01-06T13:33:34;11.20;99.90
7512;DHT22;9999;48.780;9.146;2023-01-06T13:36:17;11.20;99.90
7512;DHT22;9999;48.780;9.146;2023-01-06T13:38:54;11.20;99.90
7512;DHT22;9999;48.780;9.146;2023-01-06T13:41:28;11.20;99.90
7512;DHT22;9999;48.780;9.146;2023-01-06T13:43:57;11.20;99.90
7512;DHT22;9999;48.780;9.146;2023-01-06T13:46:25;11.20;99.90
7512;DHT22;9999;48.780;9.146;2023-01-06T13:48:54;11.20;99.90
7512;DHT22;9999;48.780;9.146;2023-01-06T13:51:25;11.30;99.90
7512;DHT22;9999;48.780;9.146;2023-01-06T13:53:52;11.10;99.90
7512;DHT22;9999;48.780;9.146;2023-01-06T13:56:24;11.10;99.90
7512;DHT22;9999;48.780;9.146;2023-01-06T13:58:51;11.00;99.90
7512;DHT22;9999;48.780;9.146;2023-01-06T14:01:39;11.10;99.90
7512;DHT22;9999;48.780;9.146;2023-01-06T14:06:51;11.10;99.90
7512;DHT22;9999;48.780;9.146;2023-01-06T14:09:17;11.10;99.90
7512;DHT22;9999;48.780;9.146;2023-01-06T14:11:44;11.10;99.90
7512;DHT22;9999;48.780;9.146;2023-01-06T14:14:18;11.10;99.90
7512;DHT22;9999;48.780;9.146;2023-01-06T14:16:50;11.10;99.90
7512;DHT22;9999;48.780;9.146;2023-01-06T14:19:19;11.10;99.90
7512;DHT22;9999;48.780;9.146;2023-01-06T14:21:46;11.10;99.90
7512;DHT22;9999;48.780;9.146;2023-01-06T14:24:18;11.00;99.90
7512;DHT22;9999;48.780;9.146;2023-01-06T14:26:47;11.10;99.90
7512;DHT22;9999;48.780;9.146;2023-01-06T14:32:01;11.00;99.90
7512;DHT22;9999;48.780;9.146;2023-01-06T14:34:27;10.80;99.90
7512;DHT22;9999;48.780;9.146;2023-01-06T14:36:54;10.90;99.90
7512;DHT22;9999;48.780;9.146;2023-01-06T14:39:24;10.90;99.90
7512;DHT22;9999;48.780;9.146;2023-01-06T14:41:52;10.80;99.90
7512;DHT22;9999;48.780;9.146;2023-01-06T14:44:25;10.80;99.90
7512;DHT22;9999;48.780;9.146;2023-01-06T14:46:57;10.80;99.90
7512;DHT22;9999;48.780;9.146;2023-01-06T14:49:32;10.80;99.90
7512;DHT22;9999;48.780;9.146;2023-01-06T14:52:06;10.90;99.90
7512;DHT22;9999;48.780;9.146;2023-01-06T14:54:36;11.00;99.90
7512;DHT22;9999;48.780;9.146;2023-01-06T14:57:04;11.00;99.90
7512;DHT22;9999;48.780;9.146;2023-01-06T14:59:32;10.80;99.90
7512;DHT22;9999;48.780;9.146;2023-01-06T15:02:02;10.80;99.90
7512;DHT22;9999;48.780;9.146;2023-01-06T15:04:31;10.80;99.90
7512;DHT22;9999;48.780;9.146;2023-01-06T15:06:59;10.80;99.90
7512;DHT22;9999;48.780;9.146;2023-01-06T15:09:26;10.80;99.90
7512;DHT22;9999;48.780;9.146;2023-01-06T15:11:53;10.80;99.90
7512;DHT22;9999;48.780;9.146;2023-01-06T15:14:24;10.60;99.90
7512;DHT22;9999;48.780;9.146;2023-01-06T15:16:51;10.60;99.90
7512;DHT22;9999;48.780;9.146;2023-01-06T15:19:18;10.50;99.90
7512;DHT22;9999;48.780;9.146;2023-01-06T15:21:46;10.60;99.90
7512;DHT22;9999;48.780;9.146;2023-01-06T15:24:15;10.50;99.90
7512;DHT22;9999;48.780;9.146;2023-01-06T15:26:43;10.50;99.90
7512;DHT22;9999;48.780;9.146;2023-01-06T15:29:12;10.40;99.90
7512;DHT22;9999;48.780;9.146;2023-01-06T15:31:39;10.40;99.90
7512;DHT22;9999;48.780;9.146;2023-01-06T15:34:07;10.40;99.90
7512;DHT22;9999;48.780;9.146;2023-01-06T15:36:34;10.40;99.90
7512;DHT22;9999;48.780;9.146;2023-01-06T15:39:04;10.40;99.90
7512;DHT22;9999;48.780;9.146;2023-01-06T15:41:31;10.40;99.90
7512;DHT22;9999;48.780;9.146;2023-01-06T15:43:58;10.50;99.90
7512;DHT22;9999;48.780;9.146;2023-01-06T15:46:25;10.50;99.90
7512;DHT22;9999;48.780;9.146;2023-01-06T15:49:00;10.40;99.90
7512;DHT22;9999;48.780;9.146;2023-01-06T15:51:27;10.20;99.90
7512;DHT22;9999;48.780;9.146;2023-01-06T15:53:55;10.20;99.90
7512;DHT22;9999;48.780;9.146;2023-01-06T15:56:25;10.30;99.90
7512;DHT22;9999;48.780;9.146;2023-01-06T15:58:53;10.40;99.90
7512;DHT22;9999;48.780;9.146;2023-01-06T16:01:20;10.40;99.90
7512;DHT22;9999;48.780;9.146;2023-01-06T16:03:48;10.30;99.90
7512;DHT22;9999;48.780;9.146;2023-01-06T16:06:23;10.30;99.90
7512;DHT22;9999;48.780;9.146;2023-01-06T16:08:50;10.30;99.90
7512;DHT22;9999;48.780;9.146;2023-01-06T16:11:25;10.40;99.90
7512;DHT22;9999;48.780;9.146;2023-01-06T16:14:26;10.30;99.90
7512;DHT22;9999;48.780;9.146;2023-01-06T16:16:59;10.20;99.90
7512;DHT22;9999;48.780;9.146;2023-01-06T16:19:26;10.20;99.90
7512;DHT22;9999;48.780;9.146;2023-01-06T16:21:53;10.20;99.90
7512;DHT22;9999;48.780;9.146;2023-01-06T16:24:21;10.20;99.90
7512;DHT22;9999;48.780;9.146;2023-01-06T16:26:52;10.20;99.90
7512;DHT22;9999;48.780;9.146;2023-01-06T16:29:24;10.10;99.90
7512;DHT22;9999;48.780;9.146;2023-01-06T16:31:51;10.00;99.90
7512;DHT22;9999;48.780;9.146;2023-01-06T16:34:23;10.00;99.90
7512;DHT22;9999;48.780;9.146;2023-01-06T16:36:52;10.00;99.90
7512;DHT22;9999;48.780;9.146;2023-01-06T16:39:19;10.00;99.90
7512;DHT22;9999;48.780;9.146;2023-01-06T16:42:01;10.00;99.90
7512;DHT22;9999;48.780;9.146;2023-01-06T16:44:58;10.00;99.90
7512;DHT22;9999;48.780;9.146;2023-01-06T16:47:25;9.90;99.90
7512;DHT22;9999;48.780;9.146;2023-01-06T16:49:52;10.00;99.90
7512;DHT22;9999;48.780;9.146;2023-01-06T16:52:18;10.10;99.90
7512;DHT22;9999;48.780;9.146;2023-01-06T16:54:45;10.00;99.90